Time;durP1;ratioP1;P1;durP2;ratioP2;P2;SDS_P1;SDS_P2;PMS_P1;PMS_P2;Temp;Humidity;BMP_temperature;BMP_pressure;BME280_temperature;BME280_humidity;BME280_pressure;Samples;Min_cycle;Max_cycle;Signal;HPM_P1;HPM_P2
2021/01/02 00:00:49;;;;;;;32.53;22.08;;;;;;;5.23;72.39;99782.50;4942098;28;97482;-76
2021/01/02 00:03:46;;;;;;;27.27;21.27;;;;;;;5.19;72.78;99792.09;4941581;28;98426;-75
2021/01/02 00:06:28;;;;;;;29.75;22.33;;;;;;;5.29;72.43;99784.03;4942508;28;98640;-76
2021/01/02 00:09:04;;;;;;;29.08;20.42;;;;;;;5.17;73.12;99793.06;4945189;28;96712;-76
2021/01/02 00:12:16;;;;;;;30.88;22.08;;;;;;;5.19;72.70;99784.34;4938865;28;96723;-74
2021/01/02 00:14:52;;;;;;;29.23;22.75;;;;;;;5.20;72.92;99777.44;4936601;28;98673;-74
2021/01/02 00:17:47;;;;;;;35.88;25.10;;;;;;;5.36;72.24;99788.91;4939677;28;98836;-74
2021/01/02 00:20:30;;;;;;;;;;;;;;;5.13;73.07;99787.16;4937167;28;96549;-74
2021/01/02 00:22:58;;;;;;;30.05;20.65;;;;;;;5.23;72.51;99775.59;4949917;28;96620;-75
2021/01/02 00:25:28;;;;;;;37.03;24.50;;;;;;;5.22;73.38;99773.09;4949149;28;97590;-74
2021/01/02 00:28:15;;;;;;;30.45;23.00;;;;;;;5.39;72.66;99769.88;4956861;28;98592;-73
2021/01/02 00:30:56;;;;;;;34.17;22.48;;;;;;;5.35;72.71;99770.91;4954493;28;96688;-74
2021/01/02 00:33:47;;;;;;;31.38;23.33;;;;;;;5.40;72.47;99766.41;4946831;28;96686;-74
2021/01/02 00:36:21;;;;;;;34.05;24.13;;;;;;;5.34;72.87;99754.53;4951797;28;98505;-74
2021/01/02 00:38:48;;;;;;;;;;;;;;;5.22;73.54;99742.06;4948986;28;98480;-75
2021/01/02 00:41:14;;;;;;;29.63;22.58;;;;;;;5.34;72.82;99748.53;4954897;28;97084;-75
2021/01/02 00:43:41;;;;;;;33.85;22.17;;;;;;;5.35;72.46;99751.06;4934248;28;97955;-74
2021/01/02 00:46:08;;;;;;;34.85;25.23;;;;;;;5.26;72.78;99764.31;4956359;28;98659;-74
2021/01/02 00:48:36;;;;;;;30.25;20.55;;;;;;;5.40;72.56;99756.91;4956884;28;98655;-74
2021/01/02 00:51:03;;;;;;;31.50;22.33;;;;;;;5.46;72.16;99772.19;4941368;28;96683;-74
2021/01/02 00:54:12;;;;;;;31.75;22.10;;;;;;;5.43;72.43;99767.16;4940640;28;96847;-74
2021/01/02 00:57:06;;;;;;;34.83;23.63;;;;;;;5.23;72.88;99759.25;4952472;28;100571;-74
2021/01/02 00:59:42;;;;;;;33.45;22.45;;;;;;;5.27;73.27;99758.22;4954741;28;98529;-75
2021/01/02 01:02:16;;;;;;;27.20;20.88;;;;;;;5.37;72.92;99730.31;4950568;28;96596;-72
2021/01/02 01:04:43;;;;;;;34.88;23.05;;;;;;;5.28;72.85;99736.69;4956746;28;96918;-73
2021/01/02 01:07:14;;;;;;;32.38;21.67;;;;;;;5.23;73.21;99752.34;4957243;28;97554;-74
2021/01/02 01:09:42;;;;;;;32.65;21.38;;;;;;;5.22;72.88;99762.75;4945364;28;98568;-69
2021/01/02 01:12:09;;;;;;;36.90;23.63;;;;;;;5.17;73.62;99762.91;4951320;28;97244;-70
2021/01/02 01:14:37;;;;;;;30.08;21.25;;;;;;;5.38;72.73;99775.94;4939858;28;96700;-71
2021/01/02 01:17:04;;;;;;;30.88;21.25;;;;;;;5.46;72.73;99782.53;4947180;28;98623;-70
2021/01/02 01:19:30;;;;;;;32.55;20.65;;;;;;;5.46;72.85;99772.19;4940081;28;98121;-71
2021/01/02 01:21:58;;;;;;;28.23;19.83;;;;;;;5.46;72.54;99766.16;4937366;28;96781;-70
2021/01/02 01:24:30;;;;;;;32.95;21.83;;;;;;;5.32;73.54;99773.56;4955561;28;96615;-71
2021/01/02 01:27:04;;;;;;;30.17;21.17;;;;;;;5.40;73.06;99782.75;4953479;28;98693;-72
2021/01/02 01:29:40;;;;;;;28.15;20.13;;;;;;;5.53;72.60;99765.03;4942834;28;97699;-73
2021/01/02 01:32:08;;;;;;;33.10;22.45;;;;;;;5.40;73.24;99767.25;4954521;28;96990;-71
2021/01/02 01:34:34;;;;;;;33.20;22.02;;;;;;;5.36;73.26;99777.75;4955558;28;96673;-72
2021/01/02 01:37:06;;;;;;;28.63;19.90;;;;;;;5.46;72.84;99776.50;4950475;28;98440;-73
2021/01/02 01:39:34;;;;;;;32.13;19.90;;;;;;;5.53;72.83;99772.78;4937897;28;98660;-72
2021/01/02 01:42:05;;;;;;;25.75;18.48;;;;;;;5.44;72.91;99767.97;4936881;28;96866;-73
2021/01/02 01:44:50;;;;;;;28.52;21.08;;;;;;;5.39;73.49;99755.22;4944950;28;97016;-73
2021/01/02 01:47:17;;;;;;;26.13;19.02;;;;;;;5.34;73.33;99761.47;4952448;28;99108;-73
2021/01/02 01:49:44;;;;;;;32.03;21.92;;;;;;;5.35;72.94;99748.47;4953853;28;98670;-73
2021/01/02 01:52:18;;;;;;;33.53;20.77;;;;;;;5.45;73.12;99748.97;4953835;28;97163;-73
2021/01/02 01:54:56;;;;;;;32.60;21.67;;;;;;;5.33;72.93;99747.69;4953246;28;96595;-74
2021/01/02 01:57:27;;;;;;;34.63;21.55;;;;;;;5.35;73.45;99748.47;4954564;28;98639;-73
2021/01/02 01:59:57;;;;;;;32.13;20.42;;;;;;;5.53;72.87;99746.94;4951027;28;98621;-72
2021/01/02 02:02:44;;;;;;;34.50;20.45;;;;;;;5.43;73.22;99741.28;4943533;28;96694;-72
2021/01/02 02:05:23;;;;;;;33.28;21.33;;;;;;;5.37;73.21;99735.47;4954361;28;96595;-73
2021/01/02 02:08:03;;;;;;;34.88;19.95;;;;;;;5.25;73.78;99737.63;4954617;28;98467;-72
2021/01/02 02:10:34;;;;;;;44.53;23.38;;;;;;;5.43;73.43;99743.88;4954149;28;98520;-72
2021/01/02 02:13:19;;;;;;;36.22;19.75;;;;;;;5.39;73.28;99765.56;4941991;28;96671;-73
2021/01/02 02:15:54;;;;;;;34.03;20.42;;;;;;;5.34;74.35;99751.97;4949548;28;96580;-73
2021/01/02 02:18:24;;;;;;;37.83;21.90;;;;;;;5.21;74.31;99737.78;4942930;28;98555;-73
2021/01/02 02:20:58;;;;;;;34.17;21.92;;;;;;;5.39;74.13;99725.94;4953230;28;98586;-73
2021/01/02 02:23:40;;;;;;;52.03;19.40;;;;;;;5.29;74.32;99722.00;4953017;28;96542;-74
2021/01/02 02:26:28;;;;;;;35.65;21.00;;;;;;;5.40;73.72;99719.88;4946032;28;97465;-74
2021/01/02 02:29:12;;;;;;;31.02;18.58;;;;;;;5.31;74.82;99707.28;4937397;28;98648;-74
2021/01/02 02:31:45;;;;;;;41.45;22.55;;;;;;;5.33;74.65;99708.09;4946951;28;98513;-73
2021/01/02 02:34:12;;;;;;;37.13;20.08;;;;;;;5.07;75.45;99716.78;4946781;28;98149;-74
2021/01/02 02:36:39;;;;;;;34.40;21.63;;;;;;;5.05;76.22;99718.56;4947052;28;97585;-72
2021/01/02 02:39:13;;;;;;;39.38;20.45;;;;;;;5.23;74.96;99708.41;4948240;28;98897;-73
2021/01/02 02:41:51;;;;;;;41.63;22.43;;;;;;;5.04;76.04;99697.06;4947246;28;98596;-74
2021/01/02 02:44:20;;;;;;;33.65;20.75;;;;;;;5.04;77.34;99693.63;4946920;28;96708;-74
2021/01/02 02:46:47;;;;;;;40.60;22.17;;;;;;;4.95;76.71;99697.38;4947707;28;99149;-73
2021/01/02 02:49:21;;;;;;;39.92;22.33;;;;;;;5.16;76.47;99704.34;4949296;28;98526;-73
2021/01/02 02:52:09;;;;;;;43.80;22.03;;;;;;;5.25;75.39;99706.59;4945893;28;98653;-72
2021/01/02 02:54:36;;;;;;;36.78;22.67;;;;;;;5.13;75.73;99707.06;4951568;28;97234;-73
2021/01/02 02:57:02;;;;;;;39.08;22.20;;;;;;;4.97;76.13;99717.09;4934572;28;96705;-72
2021/01/02 02:59:28;;;;;;;32.40;19.65;;;;;;;4.97;76.62;99718.84;4953033;28;98576;-72
2021/01/02 03:01:55;;;;;;;42.15;21.25;;;;;;;5.10;76.75;99721.81;4940556;28;98635;-72
2021/01/02 03:04:21;;;;;;;39.20;21.27;;;;;;;5.25;75.91;99727.28;4942375;28;96682;-72
2021/01/02 03:06:47;;;;;;;38.85;22.85;;;;;;;5.26;75.65;99728.97;4944796;28;97115;-72
2021/01/02 03:09:14;;;;;;;33.10;22.67;;;;;;;5.28;75.21;99725.50;4925222;28;98433;-72
2021/01/02 03:11:41;;;;;;;28.27;19.15;;;;;;;5.19;75.21;99709.41;4931120;28;98561;-72
2021/01/02 03:14:07;;;;;;;41.05;23.05;;;;;;;5.03;75.88;99705.72;4935540;28;98754;-72
2021/01/02 03:16:34;;;;;;;34.08;19.35;;;;;;;5.00;76.60;99701.47;4935090;28;96584;-72
2021/01/02 03:19:05;;;;;;;28.13;20.88;;;;;;;5.10;75.92;99699.41;4940794;28;98462;-72
2021/01/02 03:21:41;;;;;;;28.60;19.48;;;;;;;5.11;76.42;99688.19;4976510;28;97940;-74
2021/01/02 03:24:07;;;;;;;24.77;16.30;;;;;;;5.29;75.18;99683.25;4973438;28;96453;-73
2021/01/02 03:26:34;;;;;;;23.77;15.50;;;;;;;5.16;74.76;99668.19;4972682;28;96800;-73
2021/01/02 03:29:00;;;;;;;27.35;17.98;;;;;;;5.26;75.19;99666.94;4973525;28;98492;-74
2021/01/02 03:31:27;;;;;;;23.42;16.98;;;;;;;5.28;74.86;99669.50;4972987;28;98454;-73
2021/01/02 03:33:53;;;;;;;21.98;16.02;;;;;;;5.41;74.59;99668.13;4971970;28;96674;-73
2021/01/02 03:36:20;;;;;;;28.52;16.02;;;;;;;5.50;74.00;99666.94;4963591;28;96718;-74
2021/01/02 03:38:56;;;;;;;22.35;14.93;;;;;;;5.51;74.26;99671.19;4961863;28;98374;-74
2021/01/02 03:41:25;;;;;;;27.65;17.13;;;;;;;5.51;73.76;99661.69;4960149;28;99003;-73
2021/01/02 03:43:51;;;;;;;26.27;15.82;;;;;;;5.39;74.67;99663.91;4961659;28;98789;-73
2021/01/02 03:46:18;;;;;;;23.27;16.42;;;;;;;5.49;73.61;99665.25;4964549;28;97695;-73
2021/01/02 03:48:45;;;;;;;20.63;16.33;;;;;;;5.50;73.27;99683.28;4964014;28;98399;-73
2021/01/02 03:51:12;;;;;;;25.10;15.18;;;;;;;5.65;72.67;99668.94;4963312;28;98433;-73
2021/01/02 03:53:38;;;;;;;23.13;15.38;;;;;;;5.67;72.72;99671.44;4964109;28;98926;-73
2021/01/02 03:56:05;;;;;;;23.55;15.18;;;;;;;5.51;72.94;99681.53;4961196;28;97624;-73
2021/01/02 03:58:31;;;;;;;21.48;16.95;;;;;;;5.46;72.93;99673.94;4959247;28;100840;-73
2021/01/02 04:00:57;;;;;;;18.52;15.07;;;;;;;5.40;73.10;99663.00;4959102;28;99413;-73
2021/01/02 04:03:24;;;;;;;21.40;15.52;;;;;;;5.40;73.60;99638.00;4968633;28;96971;-73
2021/01/02 04:05:51;;;;;;;16.83;12.50;;;;;;;5.13;74.43;99629.56;4971002;28;96892;-73
2021/01/02 04:08:17;;;;;;;18.25;14.32;;;;;;;5.04;75.04;99637.63;4972161;28;98614;-73
2021/01/02 04:10:43;;;;;;;20.25;15.05;;;;;;;5.17;74.88;99636.31;4972539;28;98617;-72
2021/01/02 04:13:10;;;;;;;17.33;13.32;;;;;;;5.21;74.69;99634.41;4969600;28;98773;-73
2021/01/02 04:15:36;;;;;;;14.63;12.60;;;;;;;5.39;73.57;99627.72;4962810;28;96777;-73
2021/01/02 04:18:02;;;;;;;18.67;13.35;;;;;;;5.21;74.32;99624.91;4961448;28;98594;-73
2021/01/02 04:20:29;;;;;;;17.90;12.85;;;;;;;5.38;74.06;99620.84;4962918;28;99150;-73
2021/01/02 04:22:55;;;;;;;15.75;12.32;;;;;;;5.19;74.64;99624.16;4963986;28;96707;-73
2021/01/02 04:25:22;;;;;;;17.00;13.38;;;;;;;5.31;74.56;99614.25;4961762;28;97512;-73
2021/01/02 04:27:48;;;;;;;18.77;13.50;;;;;;;5.22;73.93;99607.72;4931294;28;99996;-73
2021/01/02 04:30:15;;;;;;;15.63;11.60;;;;;;;5.11;74.59;99605.50;4961495;28;98500;-73
2021/01/02 04:32:49;;;;;;;18.75;13.85;;;;;;;5.18;74.18;99600.97;4961219;28;97202;-73
2021/01/02 04:35:16;;;;;;;14.13;12.23;;;;;;;5.24;74.39;99601.56;4960392;28;96739;-73
2021/01/02 04:37:42;;;;;;;17.00;11.38;;;;;;;5.05;74.24;99594.56;4964964;28;98449;-74
2021/01/02 04:40:11;;;;;;;17.25;14.10;;;;;;;4.90;75.10;99608.88;4971736;28;98610;-73
2021/01/02 04:42:42;;;;;;;20.20;12.57;;;;;;;5.19;74.46;99611.22;4971973;28;96625;-74
2021/01/02 04:45:09;;;;;;;17.85;12.63;;;;;;;5.07;74.49;99614.28;4973076;28;96572;-73
2021/01/02 04:47:36;;;;;;;16.13;12.60;;;;;;;5.13;74.46;99605.47;4971758;28;98655;-73
2021/01/02 04:50:07;;;;;;;19.80;14.07;;;;;;;5.03;74.96;99612.72;4972349;28;99213;-74
2021/01/02 04:52:33;;;;;;;16.15;11.93;;;;;;;5.14;74.85;99618.31;4971792;28;96613;-74
2021/01/02 04:55:03;;;;;;;17.83;12.93;;;;;;;5.28;74.14;99627.31;4944906;28;96608;-74
2021/01/02 04:57:33;;;;;;;16.67;12.30;;;;;;;5.08;74.35;99626.31;4971571;28;98442;-74
2021/01/02 05:00:01;;;;;;;21.33;14.10;;;;;;;5.30;74.34;99626.34;4972820;28;98519;-74
2021/01/02 05:02:28;;;;;;;21.30;13.90;;;;;;;5.18;74.02;99627.66;4972145;28;96525;-74
2021/01/02 05:04:55;;;;;;;19.23;14.35;;;;;;;5.06;74.48;99614.31;4972016;28;96588;-74
2021/01/02 05:07:25;;;;;;;20.80;14.50;;;;;;;5.00;75.04;99613.66;4972452;28;98489;-73
2021/01/02 05:09:52;;;;;;;16.80;13.68;;;;;;;5.10;74.69;99619.31;4969909;28;98435;-73
2021/01/02 05:12:32;;;;;;;22.40;14.73;;;;;;;4.99;75.86;99606.81;4972061;28;96986;-73
2021/01/02 05:14:59;;;;;;;17.73;12.93;;;;;;;5.21;74.77;99603.41;4973034;28;96682;-73
2021/01/02 05:17:26;;;;;;;17.00;12.30;;;;;;;5.13;74.77;99608.03;4972565;28;98489;-73
2021/01/02 05:20:03;;;;;;;20.25;14.07;;;;;;;5.10;74.92;99608.16;4972187;28;98432;-73
2021/01/02 05:22:30;;;;;;;18.77;13.02;;;;;;;5.12;74.72;99617.53;4971207;28;97262;-73
2021/01/02 05:25:16;;;;;;;19.63;14.25;;;;;;;5.22;74.72;99612.88;4960958;28;97183;-73
2021/01/02 05:27:52;;;;;;;19.92;14.30;;;;;;;5.22;74.87;99624.06;4959489;28;100541;-73
2021/01/02 05:30:30;;;;;;;19.20;14.20;;;;;;;5.26;74.35;99609.25;4960719;28;100071;-73
2021/01/02 05:33:07;;;;;;;17.88;13.40;;;;;;;5.12;74.54;99594.28;4960226;28;96849;-73
2021/01/02 05:35:43;;;;;;;29.38;15.95;;;;;;;4.84;74.73;99578.97;4963843;28;97625;-73
2021/01/02 05:38:21;;;;;;;28.05;17.33;;;;;;;4.90;75.14;99577.88;4964278;28;98301;-73
2021/01/02 05:40:48;;;;;;;21.45;14.82;;;;;;;5.18;74.60;99586.31;4948477;28;98579;-73
2021/01/02 05:43:16;;;;;;;20.52;14.65;;;;;;;5.20;74.04;99589.66;4963345;28;98563;-73
2021/01/02 05:45:42;;;;;;;21.35;13.75;;;;;;;5.20;74.47;99604.31;4967431;28;96750;-73
2021/01/02 05:48:14;;;;;;;18.40;13.70;;;;;;;5.21;74.72;99598.25;4962189;28;98855;-72
2021/01/02 05:50:41;;;;;;;22.38;14.52;;;;;;;5.18;74.83;99595.81;4938574;28;98748;-73
2021/01/02 05:53:28;;;;;;;20.23;14.65;;;;;;;5.15;75.27;99589.00;4952830;28;97291;-73
2021/01/02 05:56:10;;;;;;;18.35;12.85;;;;;;;5.16;75.04;99595.00;4954764;28;96880;-73
2021/01/02 05:58:45;;;;;;;23.38;14.38;;;;;;;5.08;75.53;99595.31;4956993;28;99714;-73
2021/01/02 06:01:15;;;;;;;21.23;14.88;;;;;;;5.16;75.51;99600.16;4963831;28;98444;-73
2021/01/02 06:03:43;;;;;;;23.10;14.23;;;;;;;5.20;74.79;99606.91;4964007;28;97107;-73
2021/01/02 06:06:11;;;;;;;18.20;14.20;;;;;;;5.35;74.34;99613.22;4962746;28;97524;-73
2021/01/02 06:08:43;;;;;;;18.33;14.27;;;;;;;5.43;74.17;99595.66;4955356;28;98604;-73
2021/01/02 06:11:14;;;;;;;22.50;15.13;;;;;;;5.31;74.75;99596.16;4966811;28;98571;-73
2021/01/02 06:13:43;;;;;;;21.92;14.25;;;;;;;5.37;74.58;99596.75;4965454;28;98953;-73
2021/01/02 06:16:09;;;;;;;17.08;13.57;;;;;;;5.32;74.27;99590.91;4966798;28;97388;-73
2021/01/02 06:18:40;;;;;;;21.42;13.80;;;;;;;5.30;74.69;99599.66;4962986;28;98583;-73
2021/01/02 06:21:11;;;;;;;17.77;12.77;;;;;;;5.43;74.52;99606.88;4961915;28;98636;-73
2021/01/02 06:23:38;;;;;;;20.17;13.88;;;;;;;5.42;74.03;99605.16;4962516;28;96697;-73
2021/01/02 06:26:06;;;;;;;19.33;13.52;;;;;;;5.24;74.30;99580.06;4965423;28;97048;-73
2021/01/02 06:28:33;;;;;;;19.55;15.02;;;;;;;5.17;74.92;99571.72;4967378;28;98626;-73
2021/01/02 06:31:09;;;;;;;19.65;15.20;;;;;;;5.41;73.95;99577.66;4963142;28;98683;-73
2021/01/02 06:33:36;;;;;;;17.05;13.63;;;;;;;5.43;73.87;99575.00;4961791;28;99175;-73
2021/01/02 06:36:03;;;;;;;22.67;15.55;;;;;;;5.28;75.02;99580.78;4959240;28;96806;-73
2021/01/02 06:38:29;;;;;;;16.00;13.18;;;;;;;5.26;74.56;99573.91;4965115;28;98481;-73
2021/01/02 06:40:56;;;;;;;18.23;14.82;;;;;;;5.48;73.28;99573.06;4962614;28;98585;-74
2021/01/02 06:43:36;;;;;;;20.77;15.30;;;;;;;5.52;73.46;99574.63;4965573;28;97840;-74
2021/01/02 06:46:03;;;;;;;19.58;15.13;;;;;;;5.36;74.00;99571.81;4947948;28;97357;-75
2021/01/02 06:48:31;;;;;;;22.40;16.48;;;;;;;5.38;73.79;99569.16;4966087;28;98670;-68
2021/01/02 06:51:06;;;;;;;20.80;16.05;;;;;;;5.59;73.26;99555.38;4966918;28;98657;-69
2021/01/02 06:53:36;;;;;;;19.50;15.23;;;;;;;5.42;73.81;99557.81;4951807;28;97609;-70
2021/01/02 06:56:06;;;;;;;20.20;15.80;;;;;;;5.40;74.20;99557.88;4964349;28;97750;-71
2021/01/02 06:58:44;;;;;;;17.20;15.20;;;;;;;5.32;74.44;99556.47;4961393;28;98574;-72
2021/01/02 07:01:16;;;;;;;19.98;15.73;;;;;;;5.43;74.59;99562.94;4961453;28;98532;-72
2021/01/02 07:03:46;;;;;;;21.23;16.30;;;;;;;5.42;74.24;99563.81;4962099;28;98100;-72
2021/01/02 07:06:31;;;;;;;22.08;16.92;;;;;;;5.44;73.76;99567.19;4965106;28;96794;-70
2021/01/02 07:09:02;;;;;;;22.65;16.02;;;;;;;5.42;73.82;99556.06;4958561;28;98413;-73
2021/01/02 07:11:30;;;;;;;22.23;16.05;;;;;;;5.50;73.66;99561.78;4965575;28;99164;-72
2021/01/02 07:14:12;;;;;;;23.17;17.10;;;;;;;5.46;73.28;99555.03;4961570;28;99844;-74
2021/01/02 07:16:45;;;;;;;19.73;16.08;;;;;;;5.37;74.29;99557.16;4963234;28;97999;-72
2021/01/02 07:19:24;;;;;;;22.20;16.60;;;;;;;5.57;73.75;99559.78;4964469;28;99370;-69
2021/01/02 07:22:12;;;;;;;24.27;17.08;;;;;;;5.64;73.34;99565.53;4970666;28;98467;-67
2021/01/02 07:24:50;;;;;;;24.88;17.90;;;;;;;5.76;72.70;99565.91;4972846;28;97868;-72
2021/01/02 07:27:21;;;;;;;24.25;16.90;;;;;;;5.63;73.16;99562.13;4971410;28;97084;-73
2021/01/02 07:29:49;;;;;;;26.20;17.10;;;;;;;5.50;73.60;99560.94;4971944;28;98439;-73
2021/01/02 07:32:27;;;;;;;23.70;18.15;;;;;;;5.40;74.48;99562.19;4973368;28;98474;-72
2021/01/02 07:34:54;;;;;;;25.45;18.17;;;;;;;5.52;74.06;99572.06;4972069;28;97258;-71
2021/01/02 07:37:25;;;;;;;23.05;18.05;;;;;;;5.57;73.67;99577.88;4974263;28;96631;-70
2021/01/02 07:39:55;;;;;;;26.00;17.45;;;;;;;5.65;73.52;99578.44;4973252;28;98469;-72
2021/01/02 07:42:24;;;;;;;23.33;16.92;;;;;;;5.51;74.38;99573.78;4973544;28;98532;-71
2021/01/02 07:45:10;;;;;;;24.02;16.85;;;;;;;5.32;74.68;99577.16;4973371;28;96907;-73
2021/01/02 07:47:36;;;;;;;28.08;18.90;;;;;;;5.38;75.13;99574.31;4973085;28;96881;-73
2021/01/02 07:50:25;;;;;;;26.27;18.23;;;;;;;5.15;75.36;99568.31;4971672;28;98369;-73
2021/01/02 07:52:56;;;;;;;24.20;17.80;;;;;;;5.27;75.36;99569.56;4971685;28;98610;-73
2021/01/02 07:55:31;;;;;;;23.95;17.35;;;;;;;5.43;74.71;99573.28;4972196;28;98486;-73
2021/01/02 07:57:57;;;;;;;26.27;19.00;;;;;;;5.42;74.50;99571.56;4972809;28;96713;-72
2021/01/02 08:00:25;;;;;;;30.30;22.88;;;;;;;5.59;73.49;99575.22;4973419;28;98572;-71
2021/01/02 08:02:51;;;;;;;26.55;20.85;;;;;;;5.52;73.84;99572.06;4972158;28;98924;-73
2021/01/02 08:05:22;;;;;;;27.08;18.25;;;;;;;5.37;74.61;99572.66;4973344;28;96529;-72
2021/01/02 08:07:59;;;;;;;29.92;18.58;;;;;;;5.53;73.96;99573.72;4973526;28;97974;-70
2021/01/02 08:10:26;;;;;;;27.25;19.33;;;;;;;5.51;74.34;99560.03;4972810;28;98566;-71
2021/01/02 08:12:57;;;;;;;20.90;15.65;;;;;;;5.66;73.37;99556.84;4972774;28;98539;-71
2021/01/02 08:15:35;;;;;;;22.30;17.10;;;;;;;5.50;74.12;99571.28;4955921;28;96608;-71
2021/01/02 08:18:02;;;;;;;24.67;17.05;;;;;;;5.50;74.19;99560.94;4972389;28;96646;-69
2021/01/02 08:20:28;;;;;;;23.98;17.42;;;;;;;5.53;74.27;99561.63;4972840;28;98939;-68
2021/01/02 08:22:55;;;;;;;21.52;15.05;;;;;;;5.34;74.67;99550.38;4972936;28;98414;-73
2021/01/02 08:25:21;;;;;;;22.25;16.77;;;;;;;5.31;74.88;99555.66;4955324;28;97378;-69
2021/01/02 08:27:48;;;;;;;22.02;17.00;;;;;;;5.28;75.31;99557.53;4973247;28;96684;-69
2021/01/02 08:30:15;;;;;;;20.13;15.65;;;;;;;5.36;75.62;99560.63;4961146;28;97695;-70
2021/01/02 08:32:52;;;;;;;23.40;17.35;;;;;;;5.27;75.17;99561.81;4963651;28;98417;-70
2021/01/02 08:35:34;;;;;;;18.52;14.13;;;;;;;5.60;74.64;99559.66;4960039;28;96767;-70
2021/01/02 08:38:08;;;;;;;20.73;14.77;;;;;;;5.74;73.94;99564.25;4963429;28;96667;-73
2021/01/02 08:40:38;;;;;;;19.42;14.35;;;;;;;5.64;74.60;99558.63;4967896;28;98706;-70
2021/01/02 08:43:04;;;;;;;21.35;15.93;;;;;;;5.77;74.31;99570.16;4970791;28;98394;-72
2021/01/02 08:45:33;;;;;;;19.52;16.60;;;;;;;5.46;75.11;99559.38;4955612;28;96659;-75
2021/01/02 08:48:06;;;;;;;19.67;15.38;;;;;;;5.66;74.79;99556.84;4970783;28;96654;-76
2021/01/02 08:50:33;;;;;;;21.13;16.75;;;;;;;5.69;75.22;99556.69;4976607;28;98639;-77
2021/01/02 08:52:59;;;;;;;20.55;15.77;;;;;;;5.68;75.36;99557.59;4978101;28;98425;-77
2021/01/02 08:55:28;;;;;;;19.92;14.52;;;;;;;5.81;74.60;99549.34;4976626;28;96625;-77
2021/01/02 08:57:54;;;;;;;24.00;14.85;;;;;;;5.84;74.53;99546.63;4976676;28;97576;-77
2021/01/02 09:00:29;;;;;;;20.45;17.73;;;;;;;5.76;75.10;99547.78;4974020;28;98628;-75
2021/01/02 09:02:56;;;;;;;19.48;16.10;;;;;;;5.92;74.50;99550.63;4973053;28;98620;-76
2021/01/02 09:05:34;;;;;;;19.95;15.10;;;;;;;5.93;74.21;99548.88;4975530;28;96700;-77
2021/01/02 09:08:16;;;;;;;17.88;14.27;;;;;;;6.01;74.61;99557.13;4971577;28;96924;-76
2021/01/02 09:10:43;;;;;;;19.52;14.30;;;;;;;6.14;73.67;99553.13;4924762;28;118256;-75
2021/01/02 09:13:17;;;;;;;21.27;15.18;;;;;;;5.83;74.87;99552.72;4955590;28;98655;-76
2021/01/02 09:15:56;;;;;;;19.15;14.45;;;;;;;5.99;74.85;99552.03;4956467;28;96526;-77
2021/01/02 09:18:25;;;;;;;26.73;17.00;;;;;;;5.89;74.70;99542.94;4954403;28;96651;-77
2021/01/02 09:20:51;;;;;;;20.63;15.80;;;;;;;6.04;74.65;99539.75;4955021;28;98641;-77
2021/01/02 09:23:35;;;;;;;19.83;15.30;;;;;;;5.97;75.19;99540.06;4956214;28;98664;-73
2021/01/02 09:26:22;;;;;;;20.42;15.45;;;;;;;5.98;75.43;99541.75;4955278;28;96877;-76
2021/01/02 09:28:49;;;;;;;20.40;15.40;;;;;;;5.92;75.44;99548.03;4955007;28;96620;-75
2021/01/02 09:31:16;;;;;;;20.63;16.73;;;;;;;5.92;75.64;99547.19;4954832;28;98555;-77
2021/01/02 09:33:43;;;;;;;19.60;14.13;;;;;;;5.97;75.67;99548.69;4954695;28;97527;-77
2021/01/02 09:36:12;;;;;;;18.05;15.10;;;;;;;5.97;75.71;99540.91;4955757;28;96568;-76
2021/01/02 09:38:38;;;;;;;22.90;16.55;;;;;;;5.97;75.60;99540.06;4955862;28;96636;-78
2021/01/02 09:41:04;;;;;;;22.42;16.67;;;;;;;6.02;75.42;99527.78;4954727;28;98445;-72
2021/01/02 09:43:31;;;;;;;22.10;16.85;;;;;;;6.08;75.51;99532.69;4938290;28;98640;-77
2021/01/02 09:45:57;;;;;;;19.10;16.98;;;;;;;6.11;75.59;99534.28;4955374;28;96850;-77
2021/01/02 09:48:23;;;;;;;26.05;18.08;;;;;;;6.24;75.18;99530.28;4938309;28;96920;-77
2021/01/02 09:50:50;;;;;;;20.85;16.80;;;;;;;6.20;74.88;99526.97;4952662;28;98468;-76
2021/01/02 09:53:17;;;;;;;26.15;21.05;;;;;;;6.32;75.10;99529.94;4953437;28;98497;-76
2021/01/02 09:55:43;;;;;;;21.70;17.45;;;;;;;6.29;75.17;99515.41;4953243;28;96697;-73
2021/01/02 09:58:11;;;;;;;23.00;16.92;;;;;;;6.24;75.07;99512.16;4951282;28;97090;-74
2021/01/02 10:00:37;;;;;;;21.80;17.58;;;;;;;6.29;75.43;99505.88;4953120;28;98454;-74
2021/01/02 10:03:06;;;;;;;24.10;17.23;;;;;;;6.32;75.37;99504.06;4951458;28;98459;-73
2021/01/02 10:05:41;;;;;;;24.40;17.88;;;;;;;6.27;75.28;99496.50;4953337;28;97474;-73
2021/01/02 10:08:08;;;;;;;25.10;17.25;;;;;;;6.20;76.67;99490.75;4954698;28;98023;-68
2021/01/02 10:10:34;;;;;;;25.10;18.50;;;;;;;6.28;76.04;99499.03;4954915;28;98315;-73
2021/01/02 10:13:01;;;;;;;25.70;17.55;;;;;;;6.39;75.32;99490.78;4954635;28;98684;-73
2021/01/02 10:15:28;;;;;;;22.85;16.70;;;;;;;6.37;75.64;99492.59;4954755;28;96857;-73
2021/01/02 10:17:55;;;;;;;22.27;16.08;;;;;;;6.36;75.53;99484.91;4955026;28;97307;-73
2021/01/02 10:20:22;;;;;;;21.60;16.08;;;;;;;6.43;75.45;99484.53;4953509;28;98653;-73
2021/01/02 10:22:48;;;;;;;20.98;17.50;;;;;;;6.53;75.28;99482.38;4954545;28;98444;-73
2021/01/02 10:25:14;;;;;;;24.27;19.13;;;;;;;6.42;74.89;99474.25;4954145;28;97984;-73
2021/01/02 10:27:41;;;;;;;25.98;18.23;;;;;;;6.43;76.09;99470.75;4954792;28;96987;-73
2021/01/02 10:30:09;;;;;;;21.10;15.98;;;;;;;6.42;76.41;99467.34;4953942;28;98806;-74
2021/01/02 10:32:35;;;;;;;22.45;17.25;;;;;;;6.45;76.22;99464.63;4954487;28;98416;-72
2021/01/02 10:35:03;;;;;;;22.25;16.75;;;;;;;6.37;76.40;99458.09;4923147;28;96642;-74
2021/01/02 10:37:30;;;;;;;22.52;16.55;;;;;;;6.41;76.73;99463.06;4954566;28;97000;-74
2021/01/02 10:39:56;;;;;;;23.42;15.88;;;;;;;6.61;75.60;99458.75;4948207;28;98686;-65
2021/01/02 10:42:27;;;;;;;19.42;16.50;;;;;;;6.53;75.49;99446.13;4945446;28;98394;-74
2021/01/02 10:44:53;;;;;;;21.50;16.25;;;;;;;6.57;75.75;99435.56;4943824;28;97678;-64
2021/01/02 10:47:22;;;;;;;22.08;17.17;;;;;;;6.57;75.92;99435.56;4952239;28;97205;-68
2021/01/02 10:49:48;;;;;;;24.67;17.55;;;;;;;6.58;76.21;99433.81;4940791;28;98622;-69
2021/01/02 10:52:19;;;;;;;23.60;18.20;;;;;;;6.61;76.54;99428.50;4948037;28;98606;-70
2021/01/02 10:54:46;;;;;;;22.33;17.67;;;;;;;6.74;76.12;99427.00;4943296;28;99246;-71
2021/01/02 10:57:12;;;;;;;22.80;16.33;;;;;;;6.73;76.42;99416.72;4944069;28;96994;-70
2021/01/02 10:59:42;;;;;;;22.00;18.58;;;;;;;6.83;76.27;99418.81;4947087;28;98600;-71
2021/01/02 11:02:08;;;;;;;26.95;19.25;;;;;;;6.82;76.87;99419.72;4943973;28;98411;-70
2021/01/02 11:04:35;;;;;;;25.88;18.02;;;;;;;6.92;76.36;99416.66;4943785;28;97366;-69
2021/01/02 11:07:02;;;;;;;20.05;14.15;;;;;;;6.84;76.57;99404.09;4941547;28;97380;-72
2021/01/02 11:09:28;;;;;;;16.90;13.85;;;;;;;6.89;77.22;99409.88;4950908;28;98539;-67
2021/01/02 11:11:55;;;;;;;16.27;12.98;;;;;;;6.90;76.99;99397.78;4953615;28;98479;-68
2021/01/02 11:14:21;;;;;;;12.95;11.13;;;;;;;6.92;77.28;99390.75;4953326;28;96505;-68
2021/01/02 11:16:48;;;;;;;16.45;12.65;;;;;;;6.95;76.85;99393.22;4953790;28;96623;-72
2021/01/02 11:19:18;;;;;;;17.10;13.35;;;;;;;6.98;76.92;99396.50;4936287;28;98793;-72
2021/01/02 11:21:46;;;;;;;15.90;13.10;;;;;;;6.93;76.89;99395.06;4953395;28;98606;-72
2021/01/02 11:24:13;;;;;;;13.35;9.52;;;;;;;6.88;77.20;99399.63;4953446;28;96597;-71
2021/01/02 11:26:45;;;;;;;11.95;10.70;;;;;;;7.02;76.51;99395.41;4953292;28;96705;-72
2021/01/02 11:29:13;;;;;;;11.90;10.30;;;;;;;7.03;76.37;99388.47;4952051;28;98445;-71
2021/01/02 11:31:40;;;;;;;17.58;14.48;;;;;;;7.05;76.67;99391.84;4951543;28;98568;-71
2021/01/02 11:34:18;;;;;;;13.15;11.23;;;;;;;6.95;77.30;99388.03;4952528;28;97210;-72
2021/01/02 11:36:56;;;;;;;12.43;11.13;;;;;;;6.89;77.75;99388.34;4951740;28;96707;-69
2021/01/02 11:39:22;;;;;;;10.73;9.38;;;;;;;7.00;77.08;99381.72;4951231;28;98410;-70
2021/01/02 11:41:49;;;;;;;16.40;11.63;;;;;;;7.04;77.04;99385.00;4952538;28;98601;-71
2021/01/02 11:44:17;;;;;;;17.67;13.95;;;;;;;7.10;77.13;99382.09;4935066;28;96591;-76